Time;durP1;ratioP1;P1;durP2;ratioP2;P2;SDS_P1;SDS_P2;PMS_P1;PMS_P2;Temp;Humidity;BMP_temperature;BMP_pressure;BME280_temperature;BME280_humidity;BME280_pressure;Samples;Min_cycle;Max_cycle;Signal;HPM_P1;HPM_P2
2022/10/21 00:00:34;;;;;;;10.53;3.57;;;14.80;99.90;;;;;;5034215;28;20460;-74
2022/10/21 00:03:02;;;;;;;6.80;4.83;;;14.80;99.90;;;;;;5038474;28;20448;-74
2022/10/21 00:05:29;;;;;;;7.10;4.90;;;14.80;99.90;;;;;;5035367;28;20510;-74
2022/10/21 00:07:59;;;;;;;6.80;3.97;;;14.70;99.90;;;;;;5038649;28;20452;-74
2022/10/21 00:10:26;;;;;;;6.70;3.70;;;14.60;99.90;;;;;;5035921;28;20468;-75
2022/10/21 00:12:53;;;;;;;3.77;3.20;;;14.60;99.90;;;;;;5037590;28;20452;-74
2022/10/21 00:15:20;;;;;;;8.20;3.90;;;14.50;99.90;;;;;;5034154;28;20573;-74
2022/10/21 00:17:47;;;;;;;6.50;3.07;;;14.40;99.90;;;;;;5038380;28;20490;-74
2022/10/21 00:20:16;;;;;;;6.17;4.13;;;14.40;99.90;;;;;;5035386;28;20502;-74
2022/10/21 00:22:43;;;;;;;6.00;3.13;;;14.40;99.90;;;;;;5038874;28;20904;-74
2022/10/21 00:25:10;;;;;;;5.87;3.47;;;14.40;99.90;;;;;;5035598;28;20510;-74
2022/10/21 00:27:37;;;;;;;5.27;4.07;;;14.40;99.90;;;;;;5038089;28;20456;-74
2022/10/21 00:30:06;;;;;;;9.60;4.60;;;14.30;99.90;;;;;;5034134;28;20480;-74
2022/10/21 00:32:33;;;;;;;3.87;3.23;;;14.50;99.90;;;;;;5037767;28;20448;-74
2022/10/21 00:35:00;;;;;;;8.97;4.40;;;14.50;99.90;;;;;;5034338;28;20502;-74
2022/10/21 00:37:31;;;;;;;8.27;3.93;;;14.50;99.90;;;;;;5037441;28;20452;-74
2022/10/21 00:39:58;;;;;;;7.50;4.20;;;14.50;99.90;;;;;;5035399;28;20490;-73
2022/10/21 00:42:33;;;;;;;9.80;4.27;;;14.50;99.90;;;;;;5037880;28;20514;-74
2022/10/21 00:45:17;;;;;;;7.67;3.23;;;14.50;99.90;;;;;;5035063;28;20517;-75
2022/10/21 00:47:49;;;;;;;6.57;3.10;;;14.50;99.90;;;;;;5037490;28;20549;-74
2022/10/21 00:50:26;;;;;;;4.27;2.40;;;14.50;99.90;;;;;;5035770;28;22414;-74
2022/10/21 00:52:56;;;;;;;6.70;3.30;;;14.40;99.90;;;;;;5037306;28;20452;-74
2022/10/21 00:55:26;;;;;;;6.30;2.57;;;14.40;99.90;;;;;;5035108;28;20518;-74
2022/10/21 00:57:53;;;;;;;5.30;2.50;;;14.40;99.90;;;;;;5037663;28;20448;-74
2022/10/21 01:00:20;;;;;;;4.10;2.37;;;14.40;99.90;;;;;;5034700;28;20455;-74
2022/10/21 01:02:47;;;;;;;5.67;2.97;;;14.40;99.90;;;;;;5037428;28;20888;-74
2022/10/21 01:05:15;;;;;;;7.67;3.07;;;14.50;99.90;;;;;;5034858;28;20448;-75
2022/10/21 01:07:43;;;;;;;3.27;2.10;;;14.50;99.90;;;;;;5037532;28;20452;-74
2022/10/21 01:10:11;;;;;;;5.60;2.13;;;14.60;99.90;;;;;;5034459;28;20519;-74
2022/10/21 01:12:57;;;;;;;3.03;1.60;;;14.60;99.90;;;;;;5036184;28;20515;-74
2022/10/21 01:15:29;;;;;;;5.63;2.90;;;14.60;99.90;;;;;;5034952;28;20488;-74
2022/10/21 01:18:07;;;;;;;5.23;3.17;;;14.60;99.90;;;;;;5038065;28;20448;-74
2022/10/21 01:21:03;;;;;;;3.60;2.23;;;14.50;99.90;;;;;;5033335;28;20887;-74
2022/10/21 01:24:21;;;;;;;6.27;2.80;;;14.50;99.90;;;;;;5035752;28;20514;-74
2022/10/21 01:27:23;;;;;;;4.90;2.57;;;14.40;99.90;;;;;;5034086;28;20452;-74
2022/10/21 01:30:30;;;;;;;3.33;2.10;;;14.40;99.90;;;;;;5036454;28;20765;-74
2022/10/21 01:33:33;;;;;;;4.87;2.43;;;14.40;99.90;;;;;;4937336;29;20452;-75
2022/10/21 01:36:10;;;;;;;6.47;3.13;;;14.30;99.90;;;;;;5032972;28;20923;-74
2022/10/21 01:38:43;;;;;;;3.50;2.40;;;14.30;99.90;;;;;;5035258;28;20459;-74
2022/10/21 01:41:15;;;;;;;3.10;2.77;;;14.30;99.90;;;;;;5033453;28;20463;-74
2022/10/21 01:43:50;;;;;;;5.37;2.20;;;14.40;99.90;;;;;;5036102;28;20444;-74
2022/10/21 01:46:22;;;;;;;6.20;3.10;;;14.50;99.90;;;;;;5032927;28;20464;-74
2022/10/21 01:48:55;;;;;;;5.50;3.10;;;14.40;99.90;;;;;;5033203;28;20452;-74
2022/10/21 01:51:23;;;;;;;7.03;3.97;;;14.30;99.90;;;;;;5030521;28;20486;-74
2022/10/21 01:53:54;;;;;;;6.47;3.20;;;14.20;99.90;;;;;;5034102;28;20444;-74
2022/10/21 01:56:22;;;;;;;4.67;2.40;;;14.10;99.90;;;;;;5031886;28;20452;-74
2022/10/21 01:58:50;;;;;;;3.73;2.27;;;14.00;99.90;;;;;;5034359;28;20749;-73
2022/10/21 02:01:20;;;;;;;7.40;2.50;;;13.90;99.90;;;;;;5031391;28;20519;-74
2022/10/21 02:03:53;;;;;;;5.17;2.53;;;13.90;99.90;;;;;;5036662;28;20815;-74
2022/10/21 02:06:20;;;;;;;3.67;2.63;;;13.90;99.90;;;;;;5034448;28;20475;-74
2022/10/21 02:08:47;;;;;;;2.83;1.70;;;13.80;99.90;;;;;;5036772;28;20459;-74
2022/10/21 02:11:17;;;;;;;5.10;2.83;;;13.90;99.90;;;;;;5032353;28;20467;-74
2022/10/21 02:13:51;;;;;;;7.40;2.17;;;14.00;99.90;;;;;;5035465;28;20449;-74
2022/10/21 02:16:20;;;;;;;4.90;2.30;;;14.10;99.90;;;;;;5034127;28;20849;-74
2022/10/21 02:18:47;;;;;;;5.00;2.80;;;14.10;99.90;;;;;;5036855;28;20449;-74
2022/10/21 02:21:19;;;;;;;3.07;2.20;;;14.10;99.90;;;;;;5037355;28;20518;-75
2022/10/21 02:23:52;;;;;;;2.83;1.90;;;14.20;99.90;;;;;;5033417;28;20464;-74
2022/10/21 02:26:19;;;;;;;3.70;1.90;;;14.20;99.90;;;;;;5036472;28;20458;-74
2022/10/21 02:28:47;;;;;;;5.30;2.73;;;14.30;99.90;;;;;;5034952;28;20845;-74
2022/10/21 02:31:27;;;;;;;4.53;2.83;;;14.30;99.90;;;;;;5036039;28;20541;-74
2022/10/21 02:34:04;;;;;;;4.40;3.20;;;14.30;99.90;;;;;;5033091;28;20460;-74
2022/10/21 02:36:39;;;;;;;5.63;2.03;;;14.40;99.90;;;;;;5036658;28;20812;-74
2022/10/21 02:39:13;;;;;;;4.00;2.60;;;14.50;99.90;;;;;;5033787;28;20467;-74
2022/10/21 02:41:42;;;;;;;8.13;2.67;;;14.60;99.90;;;;;;5036552;28;20448;-74
2022/10/21 02:44:09;;;;;;;5.00;2.60;;;14.60;99.90;;;;;;5034491;28;20468;-74
2022/10/21 02:46:38;;;;;;;5.43;3.30;;;14.60;99.90;;;;;;5036693;28;20444;-74
2022/10/21 02:49:06;;;;;;;4.60;2.67;;;14.60;99.90;;;;;;5034237;28;20460;-74
2022/10/21 02:51:34;;;;;;;4.83;2.67;;;14.70;99.90;;;;;;5036371;28;20448;-74
2022/10/21 02:54:01;;;;;;;6.43;2.70;;;14.70;99.90;;;;;;5034872;28;20954;-74
2022/10/21 02:56:28;;;;;;;3.17;2.03;;;14.70;99.90;;;;;;5039082;28;20448;-75
2022/10/21 02:58:55;;;;;;;7.63;2.47;;;14.70;99.90;;;;;;5035972;28;20507;-74
2022/10/21 03:01:22;;;;;;;4.80;1.67;;;14.70;99.90;;;;;;5039115;28;20907;-74
2022/10/21 03:03:49;;;;;;;5.30;2.80;;;14.60;99.90;;;;;;5036873;28;20822;-74
2022/10/21 03:06:16;;;;;;;4.67;2.00;;;14.70;99.90;;;;;;5038485;28;20506;-74
2022/10/21 03:08:45;;;;;;;6.47;2.70;;;14.70;99.90;;;;;;5036160;28;20464;-74
2022/10/21 03:11:12;;;;;;;6.83;1.70;;;14.70;99.90;;;;;;5038007;28;20935;-74
2022/10/21 03:13:39;;;;;;;6.83;2.67;;;14.80;99.90;;;;;;5034989;28;20460;-74
2022/10/21 03:16:07;;;;;;;4.67;2.87;;;14.80;99.90;;;;;;5037529;28;20475;-74
2022/10/21 03:18:34;;;;;;;3.90;2.73;;;14.80;99.90;;;;;;5035803;28;20456;-74
2022/10/21 03:21:01;;;;;;;4.23;2.30;;;14.80;99.90;;;;;;5039534;28;20748;-74
2022/10/21 03:23:28;;;;;;;5.87;2.10;;;14.80;99.90;;;;;;5036588;28;20962;-74
2022/10/21 03:25:56;;;;;;;4.40;2.23;;;14.80;99.90;;;;;;5039260;28;20453;-74
2022/10/21 03:28:23;;;;;;;3.00;1.97;;;14.90;99.90;;;;;;5037359;28;20900;-75
2022/10/21 03:30:50;;;;;;;3.23;1.97;;;14.90;99.90;;;;;;5038998;28;20492;-74
2022/10/21 03:33:17;;;;;;;6.13;2.73;;;15.00;99.90;;;;;;5036280;28;20453;-75
2022/10/21 03:35:44;;;;;;;6.10;1.90;;;14.90;99.90;;;;;;5038796;28;20510;-75
2022/10/21 03:38:11;;;;;;;6.60;1.90;;;15.00;99.90;;;;;;5036941;28;20460;-75
2022/10/21 03:40:38;;;;;;;6.40;3.40;;;15.00;99.90;;;;;;5039755;28;20494;-74
2022/10/21 03:43:06;;;;;;;6.50;3.90;;;15.10;99.90;;;;;;5036534;28;20451;-74
2022/10/21 03:45:33;;;;;;;4.13;2.40;;;15.20;99.90;;;;;;5038902;28;20502;-74
2022/10/21 03:48:00;;;;;;;6.30;2.90;;;15.20;99.90;;;;;;5036375;28;20460;-74
2022/10/21 03:50:27;;;;;;;7.57;3.07;;;15.30;99.90;;;;;;5038933;28;20538;-74
2022/10/21 03:52:55;;;;;;;4.13;2.10;;;15.40;99.90;;;;;;5035952;28;20460;-75
2022/10/21 03:55:24;;;;;;;3.80;1.40;;;15.30;99.90;;;;;;5039206;28;20495;-74
2022/10/21 03:57:51;;;;;;;4.90;2.07;;;15.30;99.90;;;;;;5036445;28;20460;-75
2022/10/21 04:00:20;;;;;;;3.20;1.77;;;15.20;99.90;;;;;;5037783;28;20436;-74
2022/10/21 04:02:47;;;;;;;4.27;1.50;;;15.20;99.90;;;;;;5034760;28;20676;-75
2022/10/21 04:05:14;;;;;;;2.37;1.67;;;15.20;99.90;;;;;;5038630;28;20428;-74
2022/10/21 04:07:42;;;;;;;2.20;1.53;;;15.10;99.90;;;;;;5036082;28;20464;-75
2022/10/21 04:10:09;;;;;;;4.83;1.63;;;15.20;99.90;;;;;;5038988;28;20956;-74
2022/10/21 04:12:37;;;;;;;2.83;1.50;;;15.20;99.90;;;;;;5035835;28;20514;-74
2022/10/21 04:15:04;;;;;;;2.40;1.70;;;15.20;99.90;;;;;;5038153;28;20448;-74
2022/10/21 04:17:33;;;;;;;7.97;1.77;;;15.20;99.90;;;;;;5035210;28;20488;-75
2022/10/21 04:20:00;;;;;;;8.10;2.47;;;15.10;99.90;;;;;;5038851;28;20890;-74
2022/10/21 04:22:27;;;;;;;5.43;1.60;;;15.10;99.90;;;;;;5037825;28;20518;-74
2022/10/21 04:24:54;;;;;;;2.40;1.20;;;15.10;99.90;;;;;;5037188;28;20428;-74
2022/10/21 04:27:21;;;;;;;3.93;1.40;;;15.30;99.90;;;;;;5036056;28;20460;-74
2022/10/21 04:29:48;;;;;;;6.40;1.83;;;15.30;99.90;;;;;;5036888;28;20488;-74
2022/10/21 04:32:15;;;;;;;3.23;1.30;;;15.20;99.90;;;;;;5033357;28;20536;-74
2022/10/21 04:34:44;;;;;;;2.33;1.20;;;15.10;99.90;;;;;;5035357;28;20448;-75
2022/10/21 04:37:11;;;;;;;3.43;1.40;;;15.10;99.90;;;;;;5035099;28;20439;-75
2022/10/21 04:39:39;;;;;;;4.73;1.20;;;15.10;99.90;;;;;;5036720;28;20451;-74
2022/10/21 04:42:06;;;;;;;4.73;1.23;;;15.10;99.90;;;;;;5033613;28;20459;-75
2022/10/21 04:44:33;;;;;;;2.57;1.80;;;15.20;99.90;;;;;;5037348;28;20447;-75
2022/10/21 04:47:00;;;;;;;9.33;1.73;;;15.20;99.90;;;;;;5034643;28;20487;-75
2022/10/21 04:49:27;;;;;;;1.90;1.20;;;15.20;99.90;;;;;;5038249;28;20448;-75
2022/10/21 04:51:55;;;;;;;2.67;1.10;;;15.20;99.90;;;;;;5036422;28;20510;-75
2022/10/21 04:54:22;;;;;;;2.80;1.20;;;15.30;99.90;;;;;;5036076;28;20487;-74
2022/10/21 04:56:49;;;;;;;3.53;1.17;;;15.20;99.90;;;;;;5037656;28;20460;-74
2022/10/21 04:59:16;;;;;;;5.20;1.50;;;15.30;99.90;;;;;;5033562;28;20453;-75
2022/10/21 05:01:43;;;;;;;2.30;1.20;;;15.30;99.90;;;;;;5038199;28;21064;-75
2022/10/21 05:04:10;;;;;;;2.77;1.23;;;15.30;99.90;;;;;;5035435;28;20460;-74
2022/10/21 05:06:37;;;;;;;6.23;1.20;;;15.40;99.90;;;;;;5040454;28;20448;-74
2022/10/21 05:09:06;;;;;;;5.80;1.40;;;15.40;99.90;;;;;;5036415;28;20503;-74
2022/10/21 05:11:33;;;;;;;4.93;1.20;;;15.50;99.90;;;;;;5037483;28;20487;-74
2022/10/21 05:14:00;;;;;;;2.83;1.10;;;15.50;99.90;;;;;;5036132;28;20460;-75
2022/10/21 05:16:26;;;;;;;3.13;1.17;;;15.50;99.90;;;;;;5037852;28;20480;-74
2022/10/21 05:18:53;;;;;;;5.37;1.10;;;15.50;99.90;;;;;;5032835;28;20718;-76
2022/10/21 05:21:21;;;;;;;1.23;0.83;;;15.50;99.90;;;;;;5035114;28;20510;-74
2022/10/21 05:23:47;;;;;;;1.83;0.90;;;15.50;99.90;;;;;;5032797;28;20487;-74
2022/10/21 05:26:16;;;;;;;4.40;1.10;;;15.60;99.90;;;;;;5036331;28;20453;-74
2022/10/21 05:28:43;;;;;;;3.30;0.90;;;15.60;99.90;;;;;;5033139;28;20487;-76
2022/10/21 05:31:10;;;;;;;4.40;1.10;;;15.70;99.90;;;;;;5036093;28;20479;-74
2022/10/21 05:33:37;;;;;;;1.30;0.90;;;15.70;99.90;;;;;;5032585;28;20452;-76
2022/10/21 05:36:06;;;;;;;3.73;1.03;;;15.70;99.90;;;;;;5037024;28;20440;-75
2022/10/21 05:38:34;;;;;;;1.70;0.87;;;15.70;99.90;;;;;;5033205;28;20457;-75
2022/10/21 05:41:01;;;;;;;3.13;0.80;;;15.70;99.90;;;;;;5034605;28;20441;-75
2022/10/21 05:43:29;;;;;;;3.70;0.87;;;15.70;99.90;;;;;;5036478;28;20456;-75
2022/10/21 05:45:56;;;;;;;4.67;0.70;;;15.70;99.90;;;;;;5034357;28;20451;-75
2022/10/21 05:48:24;;;;;;;3.80;0.80;;;15.70;99.90;;;;;;5033780;28;20502;-74
2022/10/21 05:50:53;;;;;;;5.30;1.20;;;15.80;99.90;;;;;;5035992;28;20573;-75
2022/10/21 05:53:22;;;;;;;3.33;0.80;;;15.90;99.90;;;;;;5030967;28;20467;-75
2022/10/21 05:55:56;;;;;;;1.50;0.73;;;16.00;99.90;;;;;;5034823;28;20547;-74
2022/10/21 05:58:24;;;;;;;1.83;0.70;;;15.90;99.90;;;;;;5033137;28;20521;-77
2022/10/21 06:00:54;;;;;;;3.40;0.90;;;15.80;99.90;;;;;;5035946;28;20506;-77
2022/10/21 06:03:22;;;;;;;4.63;0.80;;;15.80;99.90;;;;;;5034109;28;21022;-77
2022/10/21 06:05:49;;;;;;;1.40;0.70;;;15.80;99.90;;;;;;5037133;28;20519;-77
2022/10/21 06:08:16;;;;;;;5.87;0.70;;;15.90;99.90;;;;;;5031167;28;20483;-76
2022/10/21 06:10:44;;;;;;;2.67;0.80;;;15.80;99.90;;;;;;5035104;28;20554;-77
2022/10/21 06:13:11;;;;;;;2.07;0.80;;;15.80;99.90;;;;;;5031357;28;20460;-76
2022/10/21 06:15:38;;;;;;;2.20;0.97;;;15.80;99.90;;;;;;5033667;28;20814;-77
2022/10/21 06:18:06;;;;;;;2.73;0.87;;;15.70;99.90;;;;;;5030891;28;20456;-76
2022/10/21 06:20:33;;;;;;;2.40;0.80;;;15.60;99.90;;;;;;5036994;28;20491;-74
2022/10/21 06:23:00;;;;;;;3.90;0.70;;;15.60;99.90;;;;;;5040089;28;20513;-75
2022/10/21 06:25:27;;;;;;;3.70;0.80;;;15.60;99.90;;;;;;5035492;28;20456;-76
2022/10/21 06:27:54;;;;;;;1.20;0.70;;;15.50;99.90;;;;;;5048587;28;20447;-76
2022/10/21 06:30:22;;;;;;;0.97;0.60;;;15.50;99.90;;;;;;5044644;28;20479;-77
2022/10/21 06:32:49;;;;;;;4.57;0.80;;;15.50;99.90;;;;;;5050204;28;20803;-77
2022/10/21 06:35:18;;;;;;;1.47;1.00;;;15.60;99.90;;;;;;5036860;28;20451;-75
2022/10/21 06:37:45;;;;;;;1.70;0.60;;;15.60;99.90;;;;;;5039446;28;20800;-75
2022/10/21 06:40:12;;;;;;;2.10;0.80;;;15.60;99.90;;;;;;5037124;28;20472;-76
2022/10/21 06:42:39;;;;;;;2.17;0.70;;;15.60;99.90;;;;;;5044494;28;20482;-75
2022/10/21 06:45:07;;;;;;;1.67;0.77;;;15.60;99.90;;;;;;5055283;28;20509;-76
2022/10/21 06:47:34;;;;;;;1.90;0.70;;;15.60;99.90;;;;;;5044296;28;20448;-77
2022/10/21 06:50:02;;;;;;;1.60;0.90;;;15.60;99.90;;;;;;5051422;28;20451;-77
2022/10/21 06:52:30;;;;;;;2.60;0.80;;;15.60;99.90;;;;;;5041523;28;20486;-77
2022/10/21 06:54:57;;;;;;;2.50;0.80;;;15.60;99.90;;;;;;5047751;28;20456;-77
2022/10/21 06:57:26;;;;;;;2.77;0.73;;;15.60;99.90;;;;;;5038901;28;20460;-77
2022/10/21 06:59:54;;;;;;;1.40;0.90;;;15.60;99.90;;;;;;5050480;28;20463;-78
2022/10/21 07:02:24;;;;;;;7.47;0.80;;;15.70;99.90;;;;;;5057915;28;20454;-78
2022/10/21 07:04:52;;;;;;;4.17;0.97;;;15.60;99.90;;;;;;5043643;28;20521;-78
2022/10/21 07:07:21;;;;;;;4.47;0.60;;;15.60;99.90;;;;;;5048787;28;20455;-77
2022/10/21 07:09:49;;;;;;;1.70;0.90;;;15.60;99.90;;;;;;5034281;28;20444;-77
2022/10/21 07:12:16;;;;;;;3.50;1.20;;;15.50;99.90;;;;;;5054367;28;20467;-77
2022/10/21 07:14:43;;;;;;;7.10;1.13;;;15.50;99.90;;;;;;5042896;28;20460;-77
2022/10/21 07:17:10;;;;;;;4.50;1.00;;;15.50;99.90;;;;;;5050725;28;20487;-76
2022/10/21 07:19:37;;;;;;;3.50;1.20;;;15.40;99.90;;;;;;5042963;28;20489;-77
2022/10/21 07:22:04;;;;;;;3.27;0.90;;;15.40;99.90;;;;;;5041366;28;20530;-77
2022/10/21 07:24:31;;;;;;;6.23;2.00;;;15.40;99.90;;;;;;5046099;28;20525;-77
2022/10/21 07:27:00;;;;;;;1.50;0.70;;;15.40;99.90;;;;;;5043496;28;20804;-77
2022/10/21 07:29:27;;;;;;;1.90;0.80;;;15.40;99.90;;;;;;5033656;28;20463;-77
2022/10/21 07:31:54;;;;;;;2.87;0.90;;;15.40;99.90;;;;;;5036662;28;20488;-77
2022/10/21 07:34:21;;;;;;;5.90;1.10;;;15.50;99.90;;;;;;5034688;28;20814;-75
2022/10/21 07:36:51;;;;;;;2.53;0.70;;;15.50;99.90;;;;;;5051588;28;20448;-74
2022/10/21 07:39:20;;;;;;;2.63;0.90;;;15.50;99.90;;;;;;5032343;28;20757;-75
2022/10/21 07:41:50;;;;;;;2.33;0.70;;;15.60;99.90;;;;;;5036534;28;20518;-75
2022/10/21 07:44:20;;;;;;;4.70;0.70;;;15.60;99.90;;;;;;5033889;28;20610;-75
2022/10/21 07:46:48;;;;;;;1.40;0.87;;;15.60;99.90;;;;;;5037403;28;20871;-74
2022/10/21 07:49:16;;;;;;;1.20;0.80;;;15.70;99.90;;;;;;5032742;28;20460;-75
2022/10/21 07:51:45;;;;;;;2.53;0.83;;;15.60;99.90;;;;;;5037197;28;20526;-74
2022/10/21 07:54:22;;;;;;;2.33;1.00;;;15.70;99.90;;;;;;5035170;28;20483;-75
2022/10/21 07:56:51;;;;;;;1.70;0.90;;;15.60;99.90;;;;;;5038433;28;20502;-75
2022/10/21 07:59:21;;;;;;;1.20;0.90;;;15.60;99.90;;;;;;5034539;28;20460;-76
2022/10/21 08:01:52;;;;;;;3.40;0.77;;;15.60;99.90;;;;;;5037008;28;20448;-76
2022/10/21 08:04:23;;;;;;;3.57;0.83;;;15.60;99.90;;;;;;5034883;28;20467;-75
2022/10/21 08:06:50;;;;;;;4.63;0.80;;;15.60;99.90;;;;;;5041646;28;20925;-76
2022/10/21 08:09:18;;;;;;;4.55;1.00;;;15.60;99.90;;;;;;5033587;28;20459;-75
2022/10/21 08:11:45;;;;;;;3.47;0.90;;;15.60;99.90;;;;;;5038018;28;20222;-76
2022/10/21 08:14:13;;;;;;;4.70;0.80;;;15.70;99.90;;;;;;5036949;28;20450;-76
2022/10/21 08:16:42;;;;;;;3.63;0.70;;;15.70;99.90;;;;;;5036440;28;20472;-75
2022/10/21 08:19:09;;;;;;;2.53;0.80;;;15.70;99.90;;;;;;5044649;28;20439;-75
2022/10/21 08:21:37;;;;;;;1.37;0.80;;;15.70;99.90;;;;;;5052229;28;20436;-73
2022/10/21 08:24:05;;;;;;;1.57;0.90;;;15.70;99.90;;;;;;5019387;28;21223;-75
2022/10/21 08:26:32;;;;;;;2.73;0.90;;;15.60;99.90;;;;;;5045832;28;20441;-74
2022/10/21 08:28:59;;;;;;;2.57;0.80;;;15.60;99.90;;;;;;5042694;28;20899;-72
2022/10/21 08:31:28;;;;;;;2.73;1.10;;;15.70;99.90;;;;;;5039093;28;20534;-73
2022/10/21 08:33:58;;;;;;;3.50;0.97;;;15.60;99.90;;;;;;5047821;28;20451;-75
2022/10/21 08:36:29;;;;;;;3.10;1.00;;;15.70;99.90;;;;;;5040434;28;20518;-75
2022/10/21 08:38:57;;;;;;;2.07;0.90;;;15.70;99.90;;;;;;5039202;28;20502;-77
2022/10/21 08:41:38;;;;;;;4.90;1.10;;;15.70;99.90;;;;;;5049089;28;20860;-77
2022/10/21 08:44:11;;;;;;;3.83;0.90;;;15.70;99.90;;;;;;5022083;28;20451;-77
2022/10/21 08:46:43;;;;;;;3.83;1.20;;;15.60;99.90;;;;;;5042084;28;20626;-77
2022/10/21 08:49:18;;;;;;;2.13;1.10;;;15.70;99.90;;;;;;5046186;28;20451;-77
2022/10/21 08:52:03;;;;;;;2.00;0.90;;;15.70;99.90;;;;;;5053037;28;20493;-75
2022/10/21 08:54:40;;;;;;;2.83;0.83;;;15.60;99.90;;;;;;5054326;28;20447;-75
2022/10/21 08:57:10;;;;;;;1.90;1.00;;;15.70;99.90;;;;;;5049824;28;20447;-75
2022/10/21 08:59:40;;;;;;;2.90;1.00;;;15.90;99.90;;;;;;5053846;28;20447;-75
2022/10/21 09:02:24;;;;;;;1.50;1.00;;;15.90;99.90;;;;;;5048696;28;20549;-75
2022/10/21 09:04:58;;;;;;;10.93;4.97;;;15.90;99.90;;;;;;5052687;28;20443;-75
2022/10/21 09:07:32;;;;;;;1.20;0.80;;;15.90;99.90;;;;;;5043891;28;20464;-75
2022/10/21 09:10:03;;;;;;;2.53;1.00;;;15.90;99.90;;;;;;5046491;28;20498;-76
2022/10/21 09:12:34;;;;;;;4.07;1.10;;;15.90;99.90;;;;;;5028336;28;20472;-76
2022/10/21 09:15:20;;;;;;;2.97;0.90;;;15.80;99.90;;;;;;5048862;28;20451;-72
2022/10/21 09:17:59;;;;;;;6.07;1.10;;;15.80;99.90;;;;;;5038878;28;20534;-75
2022/10/21 09:20:37;;;;;;;1.40;0.90;;;15.90;99.90;;;;;;5046976;28;21151;-75
2022/10/21 09:23:18;;;;;;;3.83;0.80;;;16.00;99.90;;;;;;5042875;28;20447;-75
2022/10/21 09:25:52;;;;;;;2.50;0.80;;;16.10;99.90;;;;;;5041971;28;21148;-75
2022/10/21 09:28:21;;;;;;;1.67;0.90;;;16.30;99.90;;;;;;5035533;28;20892;-75
2022/10/21 09:30:51;;;;;;;2.40;0.93;;;16.30;99.90;;;;;;5044420;28;20547;-77
2022/10/21 09:33:25;;;;;;;2.50;0.80;;;16.30;99.90;;;;;;5044853;28;20479;-76
2022/10/21 09:36:01;;;;;;;1.60;0.90;;;16.30;99.90;;;;;;5038579;28;20461;-77
2022/10/21 09:38:43;;;;;;;4.33;0.80;;;16.30;99.90;;;;;;5021324;28;21089;-77
2022/10/21 09:41:16;;;;;;;3.53;0.90;;;16.40;99.90;;;;;;5053432;28;20527;-76
2022/10/21 09:43:44;;;;;;;4.50;0.73;;;16.50;99.90;;;;;;5036475;28;20506;-76
2022/10/21 09:46:12;;;;;;;1.40;0.70;;;16.50;99.90;;;;;;5050359;28;20423;-76
2022/10/21 09:48:46;;;;;;;2.00;0.50;;;16.50;99.90;;;;;;5030308;28;20503;-75
2022/10/21 09:51:17;;;;;;;1.10;0.53;;;16.50;99.90;;;;;;5044914;28;20452;-75
2022/10/21 09:53:49;;;;;;;1.90;0.60;;;16.50;99.90;;;;;;5035173;28;20510;-75
2022/10/21 09:56:19;;;;;;;1.60;0.47;;;16.60;99.90;;;;;;5049038;28;21074;-75
2022/10/21 09:58:50;;;;;;;2.87;0.60;;;16.60;99.90;;;;;;5037943;28;20522;-75
2022/10/21 10:01:19;;;;;;;1.60;0.60;;;16.70;99.90;;;;;;5051607;28;20443;-75
2022/10/21 10:03:48;;;;;;;0.67;0.40;;;16.90;99.90;;;;;;5036850;28;20449;-75
2022/10/21 10:06:37;;;;;;;1.10;0.40;;;16.90;99.90;;;;;;5051960;28;20444;-76
2022/10/21 10:09:14;;;;;;;1.40;0.43;;;17.00;99.90;;;;;;5045711;28;20841;-77
2022/10/21 10:11:52;;;;;;;0.93;0.40;;;17.00;99.90;;;;;;5043279;28;20510;-76
2022/10/21 10:14:29;;;;;;;1.60;0.40;;;17.10;99.90;;;;;;5050037;28;20462;-77
2022/10/21 10:16:56;;;;;;;2.23;0.60;;;17.10;99.90;;;;;;5040348;28;21105;-76
2022/10/21 10:19:26;;;;;;;1.80;0.50;;;17.10;99.90;;;;;;5037749;28;20479;-76
2022/10/21 10:22:13;;;;;;;1.27;0.40;;;17.00;99.90;;;;;;5054708;28;20875;-76
2022/10/21 10:24:41;;;;;;;1.60;0.40;;;16.90;99.90;;;;;;5055934;28;21075;-76
2022/10/21 10:27:14;;;;;;;1.43;0.40;;;17.00;99.90;;;;;;5056339;28;20500;-76
2022/10/21 10:29:42;;;;;;;1.27;0.40;;;17.00;99.90;;;;;;5055168;28;20888;-76
2022/10/21 10:32:15;;;;;;;1.70;0.60;;;17.10;99.90;;;;;;5039476;28;20472;-74
2022/10/21 10:34:52;;;;;;;4.10;1.23;;;17.10;99.90;;;;;;5031628;28;20513;-74
2022/10/21 10:37:23;;;;;;;0.97;0.50;;;17.10;99.90;;;;;;5034966;28;20454;-75
2022/10/21 10:39:52;;;;;;;4.30;0.60;;;17.10;99.90;;;;;;5030839;28;20502;-75
2022/10/21 10:42:25;;;;;;;1.60;0.47;;;17.10;99.90;;;;;;5035965;28;20440;-74
2022/10/21 10:44:55;;;;;;;1.40;0.50;;;17.10;99.90;;;;;;5033517;28;20528;-77
2022/10/21 10:47:26;;;;;;;2.03;0.60;;;17.20;99.90;;;;;;5035423;28;20533;-75
2022/10/21 10:49:53;;;;;;;0.97;0.50;;;17.10;99.90;;;;;;5032429;28;20519;-75
2022/10/21 10:52:24;;;;;;;1.87;0.53;;;17.20;99.90;;;;;;5036027;28;20483;-75
2022/10/21 10:55:16;;;;;;;0.90;0.60;;;17.20;99.90;;;;;;5032079;28;20462;-74
2022/10/21 10:57:48;;;;;;;1.27;0.50;;;17.20;99.90;;;;;;5035566;28;20502;-75
2022/10/21 11:00:18;;;;;;;3.37;0.70;;;17.20;99.90;;;;;;5032058;28;20486;-75
2022/10/21 11:02:54;;;;;;;2.20;0.60;;;17.30;99.90;;;;;;5034554;28;20532;-74
2022/10/21 11:05:27;;;;;;;1.80;0.70;;;17.40;99.90;;;;;;5021218;28;20451;-76
2022/10/21 11:07:59;;;;;;;1.57;0.70;;;17.50;99.90;;;;;;5042920;28;20467;-75
2022/10/21 11:10:33;;;;;;;1.90;0.50;;;17.70;99.90;;;;;;5039713;28;20535;-75
2022/10/21 11:13:05;;;;;;;0.70;0.50;;;17.60;99.90;;;;;;5057118;28;20825;-74
2022/10/21 11:15:45;;;;;;;2.20;0.40;;;17.60;99.90;;;;;;5046385;28;20448;-75
2022/10/21 11:18:18;;;;;;;0.60;0.37;;;17.70;99.90;;;;;;5035505;28;20456;-76
2022/10/21 11:20:55;;;;;;;4.40;0.53;;;17.90;99.90;;;;;;5032504;28;20506;-75
2022/10/21 11:23:42;;;;;;;0.90;0.40;;;18.10;99.90;;;;;;5037296;28;20794;-76
2022/10/21 11:26:19;;;;;;;0.80;0.43;;;18.20;99.90;;;;;;5037998;28;20464;-76
2022/10/21 11:28:53;;;;;;;1.20;0.40;;;18.30;99.90;;;;;;5037305;28;20502;-74
2022/10/21 11:31:30;;;;;;;1.33;0.40;;;18.40;99.90;;;;;;5037152;28;20463;-75
2022/10/21 11:34:02;;;;;;;1.00;0.60;;;18.50;99.90;;;;;;5033039;28;20942;-73
2022/10/21 11:36:37;;;;;;;2.77;0.80;;;18.50;99.90;;;;;;5038166;28;20452;-74
2022/10/21 11:39:27;;;;;;;1.30;0.50;;;18.30;99.90;;;;;;5034651;28;20436;-75
2022/10/21 11:42:00;;;;;;;0.80;0.40;;;18.40;99.90;;;;;;5036929;28;20503;-74
2022/10/21 11:44:40;;;;;;;0.70;0.40;;;18.30;99.90;;;;;;5032905;28;20503;-74
2022/10/21 11:47:16;;;;;;;1.30;0.40;;;18.50;99.90;;;;;;5036590;28;20452;-74
2022/10/21 11:49:55;;;;;;;0.70;0.40;;;18.60;99.90;;;;;;5034635;28;20456;-74
2022/10/21 11:52:37;;;;;;;2.00;0.30;;;18.70;99.90;;;;;;5036672;28;20515;-74
2022/10/21 11:55:28;;;;;;;0.73;0.30;;;18.80;99.90;;;;;;5032542;28;20884;-74
2022/10/21 11:58:01;;;;;;;2.43;0.37;;;18.80;99.90;;;;;;5037335;28;20510;-73
2022/10/21 12:00:32;;;;;;;0.87;0.47;;;18.50;99.90;;;;;;5034230;28;20459;-74
2022/10/21 12:03:13;;;;;;;0.50;0.27;;;18.40;99.90;;;;;;5036443;28;20506;-74
2022/10/21 12:05:46;;;;;;;0.70;0.20;;;18.50;99.90;;;;;;5034375;28;20456;-73
2022/10/21 12:08:19;;;;;;;1.27;0.33;;;18.60;99.90;;;;;;5036206;28;20452;-74
2022/10/21 12:10:54;;;;;;;1.70;0.30;;;18.50;99.90;;;;;;5032456;28;20460;-74
2022/10/21 12:13:26;;;;;;;0.50;0.20;;;18.40;99.90;;;;;;5035758;28;20958;-76
2022/10/21 12:15:56;;;;;;;1.37;0.30;;;18.50;99.90;;;;;;5033288;28;20565;-77
2022/10/21 12:18:24;;;;;;;1.13;0.30;;;18.50;99.90;;;;;;5037610;28;20448;-75
2022/10/21 12:20:53;;;;;;;0.60;0.30;;;18.40;99.90;;;;;;5034364;28;20471;-75
2022/10/21 12:23:23;;;;;;;0.70;0.30;;;18.30;99.90;;;;;;5037115;28;20440;-74
2022/10/21 12:26:09;;;;;;;0.50;0.30;;;18.30;99.90;;;;;;5034788;28;20518;-75
2022/10/21 12:28:39;;;;;;;0.40;0.20;;;18.20;99.90;;;;;;5037031;28;20451;-75
2022/10/21 12:31:28;;;;;;;1.10;0.30;;;18.10;99.90;;;;;;5030992;28;20509;-75
2022/10/21 12:33:56;;;;;;;0.60;0.20;;;18.10;99.90;;;;;;5035634;28;20534;-74
2022/10/21 12:36:45;;;;;;;0.50;0.20;;;18.10;99.90;;;;;;5036631;28;20448;-75
2022/10/21 12:39:37;;;;;;;0.50;0.30;;;18.10;99.90;;;;;;5033880;28;20452;-73
2022/10/21 12:42:11;;;;;;;0.70;0.20;;;18.10;99.90;;;;;;5035384;28;20452;-73
2022/10/21 12:44:40;;;;;;;0.50;0.30;;;18.00;99.90;;;;;;5031890;28;20519;-73
2022/10/21 12:47:25;;;;;;;0.70;0.30;;;17.90;99.90;;;;;;5035611;28;20452;-73
2022/10/21 12:50:22;;;;;;;0.53;0.20;;;17.80;99.90;;;;;;5035122;28;20459;-73
2022/10/21 12:53:12;;;;;;;0.80;0.20;;;17.80;99.90;;;;;;5034439;28;20574;-73
2022/10/21 12:55:41;;;;;;;0.50;0.30;;;17.70;99.90;;;;;;5031184;28;20464;-73
2022/10/21 12:58:26;;;;;;;0.50;0.20;;;17.70;99.90;;;;;;5032341;28;20452;-72
2022/10/21 13:00:56;;;;;;;0.83;0.23;;;17.60;99.90;;;;;;5028576;28;20529;-73
2022/10/21 13:03:54;;;;;;;1.03;0.40;;;17.60;99.90;;;;;;5034574;28;20437;-73
2022/10/21 13:06:52;;;;;;;0.40;0.20;;;17.60;99.90;;;;;;5034602;28;20876;-73
2022/10/21 13:09:41;;;;;;;0.60;0.20;;;17.50;99.90;;;;;;5031895;28;20452;-73